Startpagina
METAR-TAF:

METAR-TAF

Vliegvelden :

Awg-1, Nederland

Productieplatform

breedte: 53-29-30N, lengte: 5-56-30E, hoogte: 33 m

Actueel weer

Dit bericht is 16 minuten geleden gemaakt, om 02:55 UTC
Wind 13 kt uit het westnoordwesten
Temperatuur 18°C
Vochtigheid 94%
Druk 1011 hPa
Zicht: 5000 m
Verspreide wolken op 400 ft
Verspreide wolken op 700 ft
Gebroken wolken op 1600 ft
nevel

METAR: EHMA 240255Z AUTO 30013KT 5000 BR SCT004 SCT007 BKN016 18/17 Q1011

Tijdstip: 05:11 (03:11 UTC)


TAF: ontbreekt

Waarnemingen en weersverwachtingen van meer dan 4000 vliegvelden (METAR en TAF).

De beschikbare stations zijn de gele en rode punten op de kaart.

Ga met uw muis naar het station om de naam te zien.

Klik dan om waarnemingen en weersverwachtingen te zien.

kaart wijzigen: klik op de groene knoppen met een zwart kruis om in te zoomen, op de groene knop met een streepje om uit te zoomen of op de groene pijlen voor aangrenzende kaarten.


METAR-TAF: